createdAt,value
2019-04-14T00:07:44.928Z,80.46
2019-04-14T00:10:11.965Z,80.47
2019-04-14T00:12:40.829Z,80.34
2019-04-14T00:15:23.324Z,80.29
2019-04-14T00:17:36.942Z,80.47
2019-04-14T00:20:05.970Z,80.73
2019-04-14T00:22:32.187Z,81.22
2019-04-14T00:24:58.269Z,81.37
2019-04-14T00:27:24.103Z,81.36
2019-04-14T00:29:50.337Z,81.17
2019-04-14T00:32:16.345Z,81.17
2019-04-14T00:34:46.995Z,81.06
2019-04-14T00:37:31.598Z,81.48
2019-04-14T00:39:59.765Z,81.45
2019-04-14T00:42:34.193Z,81.62
2019-04-14T00:45:02.815Z,81.29
2019-04-14T00:47:31.186Z,81.52
2019-04-14T00:49:57.369Z,81.62
2019-04-14T00:52:23.450Z,81.65
2019-04-14T00:54:50.048Z,81.73
2019-04-14T00:57:16.071Z,81.44
2019-04-14T00:59:41.940Z,81.63
2019-04-14T01:02:08.065Z,81.78
2019-04-14T01:04:33.854Z,81.86
2019-04-14T01:07:00.144Z,81.95
2019-04-14T01:09:26.164Z,81.94
2019-04-14T01:11:53.081Z,81.95
2019-04-14T01:14:19.105Z,81.87
2019-04-14T01:16:45.205Z,81.97
2019-04-14T01:19:11.313Z,82.00
2019-04-14T01:21:37.132Z,82.23
2019-04-14T01:24:03.237Z,82.08
2019-04-14T01:26:29.096Z,82.07
2019-04-14T01:28:54.889Z,82.10
2019-04-14T01:31:20.684Z,81.96
2019-04-14T01:33:47.000Z,82.13
2019-04-14T01:36:13.003Z,82.09
2019-04-14T01:38:38.783Z,82.34
2019-04-14T01:41:06.442Z,82.38
2019-04-14T01:43:32.401Z,82.34
2019-04-14T01:46:08.014Z,82.34
2019-04-14T01:48:25.924Z,82.57
2019-04-14T01:51:11.313Z,82.46
2019-04-14T01:53:42.240Z,82.58
2019-04-14T01:56:12.767Z,82.44
2019-04-14T01:58:40.524Z,82.52
2019-04-14T02:01:08.480Z,82.54
2019-04-14T02:03:37.309Z,82.48
2019-04-14T02:06:04.550Z,82.33
2019-04-14T02:08:30.881Z,82.23
2019-04-14T02:10:56.708Z,82.29
2019-04-14T02:13:22.593Z,82.45
2019-04-14T02:15:48.598Z,82.29
2019-04-14T02:18:14.432Z,82.31
2019-04-14T02:20:40.388Z,82.38
2019-04-14T02:23:06.245Z,82.46
2019-04-14T02:25:32.042Z,82.39
2019-04-14T02:27:58.231Z,82.38
2019-04-14T02:30:30.763Z,82.42
2019-04-14T02:35:59.695Z,82.39
2019-04-14T02:38:23.196Z,82.60
2019-04-14T02:43:13.699Z,82.54
2019-04-14T02:50:32.507Z,82.42
2019-04-14T02:53:01.554Z,82.25
2019-04-14T02:55:21.237Z,82.25
2019-04-14T02:57:52.140Z,81.97
2019-04-14T03:00:24.027Z,82.21
2019-04-14T03:02:53.472Z,82.22
2019-04-14T03:05:21.837Z,82.52
2019-04-14T03:07:51.559Z,82.99
2019-04-14T03:10:18.569Z,83.29
2019-04-14T03:12:54.599Z,83.34
2019-04-14T03:15:22.177Z,83.13
2019-04-14T03:22:51.752Z,82.54
2019-04-14T03:28:17.648Z,82.34
2019-04-14T03:31:17.778Z,82.43
2019-04-14T03:36:30.362Z,82.54
2019-04-14T03:38:55.002Z,82.26
2019-04-14T03:41:13.748Z,82.22
2019-04-14T03:43:38.836Z,82.68
2019-04-14T03:49:17.835Z,82.68
2019-04-14T03:51:40.522Z,82.76
2019-04-14T03:54:09.686Z,82.59
2019-04-14T03:56:49.310Z,82.92
2019-04-14T03:59:23.843Z,83.55
2019-04-14T04:02:11.758Z,83.96
2019-04-14T04:07:34.365Z,84.14
2019-04-14T04:10:14.003Z,84.12
2019-04-14T04:12:44.282Z,84.07
2019-04-14T04:15:10.529Z,84.17
2019-04-14T04:17:38.749Z,84.11
2019-04-14T04:20:10.926Z,84.17
2019-04-14T04:22:39.012Z,83.94
2019-04-14T04:25:16.163Z,83.77
2019-04-14T04:27:59.067Z,83.73
2019-04-14T04:30:27.624Z,83.74
2019-04-14T04:33:04.517Z,83.67
2019-04-14T04:35:34.999Z,83.70
2019-04-14T04:38:03.028Z,83.70
2019-04-14T04:40:31.201Z,83.46
2019-04-14T04:42:57.194Z,83.43
2019-04-14T04:45:23.516Z,83.54
2019-04-14T04:47:49.367Z,83.32
2019-04-14T04:50:15.155Z,83.21
2019-04-14T04:52:40.933Z,83.40
2019-04-14T04:55:06.851Z,83.40
2019-04-14T04:57:32.842Z,83.38
2019-04-14T04:59:58.616Z,83.33
2019-04-14T05:02:24.500Z,83.33
2019-04-14T05:04:50.632Z,83.18
2019-04-14T05:07:16.730Z,83.07
2019-04-14T05:09:57.717Z,82.93
2019-04-14T05:12:28.384Z,82.94
2019-04-14T05:15:03.542Z,82.90
2019-04-14T05:17:43.684Z,82.69
2019-04-14T05:20:09.645Z,82.67
2019-04-14T05:22:35.480Z,82.59
2019-04-14T05:25:01.500Z,82.55
2019-04-14T05:27:27.652Z,82.27
2019-04-14T05:29:53.678Z,82.14
2019-04-14T05:32:19.508Z,82.16
2019-04-14T05:34:45.447Z,81.77
2019-04-14T05:37:11.730Z,81.70
2019-04-14T05:39:37.577Z,81.49
2019-04-14T05:42:10.725Z,81.31
2019-04-14T05:44:31.848Z,81.17
2019-04-14T05:46:57.940Z,81.00
2019-04-14T05:49:31.527Z,80.96
2019-04-14T05:51:52.417Z,80.96
2019-04-14T05:54:18.572Z,80.94
2019-04-14T05:56:44.728Z,80.73
2019-04-14T05:59:11.364Z,80.71
2019-04-14T06:01:37.278Z,80.74
2019-04-14T06:04:03.159Z,80.66
2019-04-14T06:06:28.964Z,80.73
2019-04-14T06:08:54.736Z,80.68
2019-04-14T06:11:20.526Z,80.49
2019-04-14T06:13:46.303Z,80.34
2019-04-14T06:16:12.091Z,79.91
2019-04-14T06:18:37.871Z,80.02
2019-04-14T06:21:03.676Z,79.98
2019-04-14T06:23:29.457Z,79.90
2019-04-14T06:25:55.233Z,79.74
2019-04-14T06:28:21.039Z,79.74
2019-04-14T06:31:05.312Z,79.81
2019-04-14T06:33:33.011Z,79.39
2019-04-14T06:36:09.559Z,78.83
2019-04-14T06:38:37.258Z,78.29
2019-04-14T06:41:04.940Z,78.17
2019-04-14T06:43:30.743Z,77.80
2019-04-14T06:45:56.523Z,77.21
2019-04-14T06:48:22.312Z,77.00
2019-04-14T06:50:48.087Z,76.92
2019-04-14T06:53:13.902Z,76.38
2019-04-14T06:55:39.651Z,75.59
2019-04-14T06:58:05.444Z,75.74
2019-04-14T07:00:31.226Z,76.15
2019-04-14T07:02:57.127Z,75.83
2019-04-14T07:05:22.910Z,76.17
2019-04-14T07:07:57.048Z,75.69
2019-04-14T07:10:16.395Z,76.13
2019-04-14T07:12:43.181Z,76.45
2019-04-14T07:15:09.478Z,77.03
2019-04-14T07:17:35.276Z,77.62
2019-04-14T07:20:02.597Z,77.76
2019-04-14T07:22:28.573Z,77.64
2019-04-14T07:24:54.350Z,76.73
2019-04-14T07:27:20.134Z,76.83
2019-04-14T07:30:00.771Z,76.92
2019-04-14T07:32:31.080Z,76.41
2019-04-14T07:35:15.210Z,76.50
2019-04-14T07:37:48.815Z,75.27
2019-04-14T07:40:25.411Z,75.49
2019-04-14T07:42:53.125Z,75.59
2019-04-14T07:45:20.811Z,74.55
2019-04-14T07:47:54.350Z,74.16
2019-04-14T07:50:22.037Z,73.05
2019-04-14T07:53:07.944Z,73.57
2019-04-14T07:55:41.717Z,73.46
2019-04-14T07:58:09.414Z,73.44
2019-04-14T08:00:37.108Z,74.30
2019-04-14T08:03:13.871Z,73.77
2019-04-14T08:05:41.157Z,73.56
2019-04-14T08:08:07.034Z,73.21
2019-04-14T08:10:32.824Z,72.84
2019-04-14T08:12:58.605Z,71.64
2019-04-14T08:15:24.394Z,72.03
2019-04-14T08:17:50.219Z,69.88
2019-04-14T08:20:26.737Z,69.88
2019-04-14T08:22:43.691Z,70.77
2019-04-14T08:25:09.455Z,69.11
2019-04-14T08:27:35.245Z,68.54
2019-04-14T08:30:01.048Z,69.32
2019-04-14T08:32:26.824Z,68.75
2019-04-14T08:34:52.629Z,68.59
2019-04-14T08:37:18.407Z,69.99
2019-04-14T08:39:44.198Z,69.70
2019-04-14T08:42:11.889Z,68.31
2019-04-14T08:44:39.687Z,67.96
2019-04-14T08:47:07.379Z,68.01
2019-04-14T08:49:43.940Z,68.45
2019-04-14T08:52:26.435Z,68.45
2019-04-14T08:55:02.923Z,69.34
2019-04-14T08:57:30.602Z,68.99
2019-04-14T09:00:10.222Z,67.54
2019-04-14T09:02:55.766Z,67.59
2019-04-14T09:05:40.277Z,67.10
2019-04-14T09:08:10.776Z,66.60
2019-04-14T09:10:56.349Z,65.22
2019-04-14T09:13:22.146Z,64.74
2019-04-14T09:15:47.941Z,64.74
2019-04-14T09:18:13.727Z,64.99
2019-04-14T09:20:51.372Z,64.85
2019-04-14T09:23:07.206Z,64.23
2019-04-14T09:25:33.201Z,64.73
2019-04-14T09:27:58.994Z,65.81
2019-04-14T09:30:25.598Z,66.78
2019-04-14T09:32:55.033Z,66.78
2019-04-14T09:44:47.508Z,67.21
2019-04-14T09:51:16.369Z,68.18
2019-04-14T09:54:07.516Z,68.02
2019-04-14T09:57:04.178Z,69.76
2019-04-14T09:59:46.065Z,70.50
2019-04-14T10:02:21.215Z,69.93
2019-04-14T10:04:59.000Z,70.73
2019-04-14T10:07:30.851Z,71.89
2019-04-14T10:09:56.810Z,72.41
2019-04-14T10:12:22.619Z,72.94
2019-04-14T10:14:58.507Z,73.35
2019-04-14T10:17:32.181Z,73.42
2019-04-14T10:20:17.608Z,74.05
2019-04-14T10:22:43.417Z,74.12
2019-04-14T10:25:09.432Z,74.00
2019-04-14T10:28:21.922Z,74.38
2019-04-14T10:30:08.644Z,75.07
2019-04-14T10:32:34.440Z,75.35
2019-04-14T10:35:00.228Z,75.18
2019-04-14T10:37:26.019Z,74.92
2019-04-14T10:39:51.809Z,75.30
2019-04-14T10:42:17.616Z,75.43
2019-04-14T10:44:43.396Z,75.48
2019-04-14T10:47:10.345Z,75.73
2019-04-14T10:49:36.125Z,75.98
2019-04-14T10:52:01.929Z,76.03
2019-04-14T10:54:27.701Z,76.16
2019-04-14T10:56:53.487Z,76.42
2019-04-14T10:59:19.283Z,76.26
2019-04-14T11:01:45.060Z,76.74
2019-04-14T11:04:10.890Z,76.72
2019-04-14T11:06:38.606Z,76.33
2019-04-14T11:09:06.221Z,76.34
2019-04-14T11:11:32.021Z,76.38
2019-04-14T11:13:57.833Z,75.68
2019-04-14T11:16:23.612Z,75.94
2019-04-14T11:18:49.434Z,76.79
2019-04-14T11:21:15.280Z,77.35
2019-04-14T11:23:41.085Z,78.24
2019-04-14T11:26:06.937Z,78.60
2019-04-14T11:28:32.746Z,78.61
2019-04-14T11:30:58.526Z,78.32
2019-04-14T11:33:42.585Z,77.69
2019-04-14T11:36:10.351Z,77.45
2019-04-14T11:38:40.606Z,76.63
2019-04-14T11:41:08.316Z,76.07
2019-04-14T11:43:34.135Z,76.68
2019-04-14T11:46:03.194Z,76.33
2019-04-14T11:48:28.047Z,75.69
2019-04-14T11:50:53.890Z,75.65
2019-04-14T11:53:19.728Z,76.40
2019-04-14T11:55:45.519Z,76.93
2019-04-14T11:58:11.295Z,77.25
2019-04-14T12:00:55.969Z,78.21
2019-04-14T12:03:23.660Z,78.47
2019-04-14T12:05:57.407Z,78.60
2019-04-14T12:08:34.146Z,78.55
2019-04-14T12:11:00.365Z,77.75
2019-04-14T12:13:26.152Z,77.00
2019-04-14T12:15:51.994Z,76.76
2019-04-14T12:18:17.796Z,78.14
2019-04-14T12:20:43.618Z,77.59
2019-04-14T12:23:09.428Z,78.66
2019-04-14T12:25:35.259Z,78.78
2019-04-14T12:28:01.059Z,79.61
2019-04-14T12:30:26.958Z,80.21
2019-04-14T12:32:52.742Z,79.65
2019-04-14T12:35:18.760Z,78.40
2019-04-14T12:37:44.558Z,78.40
2019-04-14T12:40:10.547Z,77.87
2019-04-14T12:42:38.353Z,77.88
2019-04-14T12:45:12.819Z,77.42
2019-04-14T12:47:43.029Z,76.61
2019-04-14T12:50:13.505Z,76.01
2019-04-14T12:52:39.303Z,76.11
2019-04-14T12:55:05.994Z,75.80
2019-04-14T12:57:33.687Z,76.08
2019-04-14T12:59:59.470Z,75.75
2019-04-14T13:02:27.187Z,76.33
2019-04-14T13:04:55.272Z,75.99
2019-04-14T13:07:22.587Z,76.10
2019-04-14T13:09:48.558Z,77.01
2019-04-14T13:12:14.985Z,76.68
2019-04-14T13:14:42.095Z,76.22
2019-04-14T13:17:10.179Z,76.08
2019-04-14T13:19:36.060Z,75.50
2019-04-14T13:22:01.893Z,74.98
2019-04-14T13:24:27.793Z,75.44
2019-04-14T13:26:53.602Z,74.89
2019-04-14T13:29:19.459Z,75.22
2019-04-14T13:31:46.098Z,74.75
2019-04-14T13:34:11.927Z,74.51
2019-04-14T13:36:37.751Z,72.54
2019-04-14T13:39:05.341Z,71.23
2019-04-14T13:41:31.149Z,70.13
2019-04-14T13:43:56.938Z,70.98
2019-04-14T13:46:22.765Z,70.35
2019-04-14T13:48:48.542Z,70.79
2019-04-14T13:51:14.347Z,71.04
2019-04-14T13:53:40.229Z,70.78
2019-04-14T13:56:06.055Z,70.98
2019-04-14T13:58:31.863Z,71.03
2019-04-14T14:00:57.647Z,70.67
2019-04-14T14:03:23.431Z,71.09
2019-04-14T14:05:49.208Z,71.67
2019-04-14T14:08:15.006Z,71.85
2019-04-14T14:10:40.796Z,71.74
2019-04-14T14:13:14.728Z,71.74
2019-04-14T14:15:58.812Z,71.75
2019-04-14T14:18:44.664Z,71.90
2019-04-14T14:21:12.356Z,71.08
2019-04-14T14:23:45.910Z,70.65
2019-04-14T14:26:13.601Z,70.96
2019-04-14T14:28:42.313Z,70.24
2019-04-14T14:31:08.102Z,70.13
2019-04-14T14:33:33.904Z,69.97
2019-04-14T14:35:59.697Z,69.43
2019-04-14T14:38:25.604Z,69.50
2019-04-14T14:40:51.985Z,69.60
2019-04-14T14:43:17.785Z,69.20
2019-04-14T14:45:45.504Z,69.02
2019-04-14T14:48:13.210Z,67.12
2019-04-14T14:50:41.350Z,67.05
2019-04-14T14:53:12.259Z,67.19
2019-04-14T14:55:36.679Z,67.20
2019-04-14T14:58:02.572Z,67.20
2019-04-14T15:00:30.252Z,67.40
2019-04-14T15:02:56.054Z,67.82
2019-04-14T15:05:21.843Z,67.75
2019-04-14T15:07:47.643Z,67.06
2019-04-14T15:10:13.690Z,66.91
2019-04-14T15:12:39.567Z,66.93
2019-04-14T15:15:05.563Z,66.58
2019-04-14T15:17:31.392Z,66.27
2019-04-14T15:19:57.190Z,66.70
2019-04-14T15:22:22.972Z,66.95
2019-04-14T15:24:48.767Z,67.12
2019-04-14T15:27:14.666Z,67.29
2019-04-14T15:29:40.469Z,67.08
2019-04-14T15:32:06.250Z,67.32
2019-04-14T15:34:32.078Z,66.92
2019-04-14T15:36:57.863Z,66.79
2019-04-14T15:39:23.680Z,66.80
2019-04-14T15:41:49.447Z,66.92
2019-04-14T15:44:15.249Z,67.03
2019-04-14T15:46:41.032Z,66.79
2019-04-14T15:49:06.833Z,66.80
2019-04-14T15:51:32.609Z,65.94
2019-04-14T15:53:58.421Z,65.99
2019-04-14T15:56:34.671Z,65.84
2019-04-14T15:59:11.245Z,66.14
2019-04-14T16:01:53.720Z,65.72
2019-04-14T16:04:24.077Z,65.31
2019-04-14T16:06:51.779Z,65.62
2019-04-14T16:09:31.313Z,65.24
2019-04-14T16:11:59.009Z,65.66
2019-04-14T16:14:35.703Z,65.03
2019-04-14T16:17:10.077Z,65.23
2019-04-14T16:19:43.700Z,65.23
2019-04-14T16:22:09.487Z,66.00
2019-04-14T16:24:35.283Z,66.00
2019-04-14T16:27:19.539Z,66.57
2019-04-14T16:29:47.240Z,66.80
2019-04-14T16:32:27.082Z,66.85
2019-04-14T16:34:54.784Z,67.35
2019-04-14T16:37:20.587Z,67.57
2019-04-14T16:39:46.391Z,67.21
2019-04-14T16:42:12.183Z,66.80
2019-04-14T16:44:37.964Z,66.83
2019-04-14T16:47:04.356Z,67.08
2019-04-14T16:49:30.148Z,67.26
2019-04-14T16:52:03.544Z,67.73
2019-04-14T16:54:49.425Z,67.73
2019-04-14T16:57:29.405Z,68.13
2019-04-14T16:59:55.241Z,68.47
2019-04-14T17:02:21.035Z,68.47
2019-04-14T17:04:46.807Z,68.86
2019-04-14T17:07:12.630Z,69.12
2019-04-14T17:09:38.508Z,69.01
2019-04-14T17:12:04.299Z,69.32
2019-04-14T17:14:32.002Z,69.50
2019-04-14T17:17:08.718Z,70.09
2019-04-14T17:19:36.442Z,70.57
2019-04-14T17:22:06.918Z,70.83
2019-04-14T17:24:37.543Z,70.94
2019-04-14T17:29:54.945Z,71.58
2019-04-14T17:39:03.516Z,72.69
2019-04-14T17:44:56.213Z,73.30
2019-04-14T17:51:08.397Z,73.61
2019-04-14T17:54:00.894Z,73.87
2019-04-14T17:56:45.744Z,74.08
2019-04-14T18:02:40.395Z,74.29
2019-04-14T18:05:36.378Z,74.36
2019-04-14T18:08:11.155Z,74.51
2019-04-14T18:10:56.947Z,74.60
2019-04-14T18:13:44.354Z,74.70
2019-04-14T18:16:18.836Z,75.01
2019-04-14T18:18:52.318Z,75.04
2019-04-14T18:21:44.354Z,75.09
2019-04-14T18:25:05.302Z,75.34
2019-04-14T18:26:51.243Z,75.46
2019-04-14T18:29:27.865Z,75.76
2019-04-14T18:32:21.527Z,75.68
2019-04-14T18:35:07.261Z,75.71
2019-04-14T18:40:58.682Z,75.75
2019-04-14T18:43:49.346Z,76.02
2019-04-14T18:49:52.849Z,76.29
2019-04-14T18:52:26.959Z,76.34
2019-04-14T18:55:46.796Z,76.37
2019-04-14T18:58:29.327Z,76.39
2019-04-14T19:01:04.898Z,76.31
2019-04-14T19:03:34.630Z,76.27
2019-04-14T19:06:31.665Z,76.35
2019-04-14T19:09:07.687Z,76.36
2019-04-14T19:11:59.761Z,76.27
2019-04-14T19:14:27.535Z,76.46
2019-04-14T19:17:00.290Z,76.50
2019-04-14T19:19:33.049Z,76.63
2019-04-14T19:22:15.104Z,76.83
2019-04-14T19:26:31.587Z,76.69
2019-04-14T19:33:52.234Z,76.76
2019-04-14T19:36:35.092Z,76.83
2019-04-14T19:41:53.536Z,77.05
2019-04-14T19:50:05.468Z,77.35
2019-04-14T19:52:53.263Z,77.41
2019-04-14T19:55:21.026Z,77.48
2019-04-14T19:57:55.512Z,77.50
2019-04-14T20:00:46.203Z,77.54
2019-04-14T20:02:57.495Z,77.52
2019-04-14T20:05:27.847Z,77.33
2019-04-14T20:08:06.705Z,77.21
2019-04-14T20:10:37.453Z,76.90
2019-04-14T20:13:05.334Z,76.78
2019-04-14T20:15:33.376Z,76.93
2019-04-14T20:18:10.050Z,76.84
2019-04-14T20:20:47.292Z,76.85
2019-04-14T20:23:34.825Z,76.88
2019-04-14T20:26:19.167Z,76.50
2019-04-14T20:28:46.857Z,76.91
2019-04-14T20:31:31.445Z,76.74
2019-04-14T20:33:57.305Z,76.89
2019-04-14T20:36:23.104Z,76.91
2019-04-14T20:38:48.901Z,76.85
2019-04-14T20:41:14.678Z,76.92
2019-04-14T20:43:40.576Z,76.85
2019-04-14T20:46:06.367Z,77.11
2019-04-14T20:48:32.145Z,77.25
2019-04-14T20:50:57.936Z,77.44
2019-04-14T20:53:25.218Z,77.29
2019-04-14T20:55:51.217Z,77.32
2019-04-14T20:58:16.997Z,77.30
2019-04-14T21:00:42.793Z,77.44
2019-04-14T21:03:28.319Z,77.32
2019-04-14T21:05:56.038Z,77.49
2019-04-14T21:08:23.731Z,77.67
2019-04-14T21:10:51.540Z,77.87
2019-04-14T21:13:22.001Z,77.77
